sensor_id;sensor_type;location;lat;lon;timestamp;pressure;altitude;pressure_sealevel;temperature;humidity
39301;BME280;25019;42.626;23.380;2023-04-07T00:00:53;94156.94;;;1.23;56.31
39301;BME280;25019;42.626;23.380;2023-04-07T00:03:18;94144.66;;;1.23;56.15
39301;BME280;25019;42.626;23.380;2023-04-07T00:05:44;94144.88;;;1.22;55.86
39301;BME280;25019;42.626;23.380;2023-04-07T00:08:10;94104.69;;;0.87;56.13
39301;BME280;25019;42.626;23.380;2023-04-07T00:10:37;94092.81;;;0.85;56.35
39301;BME280;25019;42.626;23.380;2023-04-07T00:13:02;94151.50;;;1.24;55.99
39301;BME280;25019;42.626;23.380;2023-04-07T00:15:28;94147.88;;;1.18;56.08
39301;BME280;25019;42.626;23.380;2023-04-07T00:17:54;94151.50;;;1.24;56.28
39301;BME280;25019;42.626;23.380;2023-04-07T00:20:20;94151.09;;;1.21;55.83
39301;BME280;25019;42.626;23.380;2023-04-07T00:22:46;94148.88;;;1.24;56.21
39301;BME280;25019;42.626;23.380;2023-04-07T00:25:11;94065.59;;;0.66;56.94
39301;BME280;25019;42.626;23.380;2023-04-07T00:27:37;94017.44;;;0.40;56.72
39301;BME280;25019;42.626;23.380;2023-04-07T00:30:03;94100.31;;;0.95;56.65
39301;BME280;25019;42.626;23.380;2023-04-07T00:32:29;94078.91;;;0.78;56.68
39301;BME280;25019;42.626;23.380;2023-04-07T00:34:54;94139.25;;;1.25;56.70
39301;BME280;25019;42.626;23.380;2023-04-07T00:37:20;94141.25;;;1.23;57.44
39301;BME280;25019;42.626;23.380;2023-04-07T00:39:46;94149.28;;;1.21;57.50
39301;BME280;25019;42.626;23.380;2023-04-07T00:42:12;94145.44;;;1.17;57.42
39301;BME280;25019;42.626;23.380;2023-04-07T00:44:37;94133.16;;;1.11;57.29
39301;BME280;25019;42.626;23.380;2023-04-07T00:47:03;94145.03;;;1.13;57.05
39301;BME280;25019;42.626;23.380;2023-04-07T00:49:29;94141.59;;;1.13;56.93
39301;BME280;25019;42.626;23.380;2023-04-07T00:51:57;94146.81;;;1.13;57.43
39301;BME280;25019;42.626;23.380;2023-04-07T00:54:23;94145.63;;;1.09;57.14
39301;BME280;25019;42.626;23.380;2023-04-07T00:56:49;94137.34;;;1.05;57.51
39301;BME280;25019;42.626;23.380;2023-04-07T00:59:16;94122.84;;;1.02;57.62
39301;BME280;25019;42.626;23.380;2023-04-07T01:02:04;94019.22;;;0.33;57.79
39301;BME280;25019;42.626;23.380;2023-04-07T01:04:38;94136.56;;;1.04;57.23
39301;BME280;25019;42.626;23.380;2023-04-07T01:07:12;94142.59;;;1.12;56.97
39301;BME280;25019;42.626;23.380;2023-04-07T01:09:57;94145.81;;;1.14;56.79
39301;BME280;25019;42.626;23.380;2023-04-07T01:16:00;94142.81;;;1.10;56.99
39301;BME280;25019;42.626;23.380;2023-04-07T01:18:34;94138.38;;;1.11;57.27
39301;BME280;25019;42.626;23.380;2023-04-07T01:21:05;94137.78;;;1.09;57.92
39301;BME280;25019;42.626;23.380;2023-04-07T01:26:27;94141.81;;;1.11;58.04
39301;BME280;25019;42.626;23.380;2023-04-07T01:31:38;94132.13;;;1.12;57.59
39301;BME280;25019;42.626;23.380;2023-04-07T01:34:05;94083.75;;;0.81;57.57
39301;BME280;25019;42.626;23.380;2023-04-07T01:36:32;94110.56;;;1.03;57.13
39301;BME280;25019;42.626;23.380;2023-04-07T01:38:59;94126.31;;;1.16;56.57
39301;BME280;25019;42.626;23.380;2023-04-07T01:41:26;94127.56;;;1.21;56.57
39301;BME280;25019;42.626;23.380;2023-04-07T01:43:53;94107.19;;;1.16;56.50
39301;BME280;25019;42.626;23.380;2023-04-07T01:46:20;94128.16;;;1.23;56.58
39301;BME280;25019;42.626;23.380;2023-04-07T01:48:47;94020.34;;;0.65;56.16
39301;BME280;25019;42.626;23.380;2023-04-07T01:51:13;94088.47;;;1.12;55.77
39301;BME280;25019;42.626;23.380;2023-04-07T01:53:44;94104.03;;;1.27;55.63
39301;BME280;25019;42.626;23.380;2023-04-07T01:56:11;94063.88;;;1.00;55.44
39301;BME280;25019;42.626;23.380;2023-04-07T01:58:37;94102.63;;;1.31;55.00
39301;BME280;25019;42.626;23.380;2023-04-07T02:01:06;94069.94;;;1.07;55.54
39301;BME280;25019;42.626;23.380;2023-04-07T02:04:01;94117.13;;;1.41;54.95
39301;BME280;25019;42.626;23.380;2023-04-07T02:06:42;94119.16;;;1.39;55.09
39301;BME280;25019;42.626;23.380;2023-04-07T02:09:10;94106.84;;;1.32;55.16
39301;BME280;25019;42.626;23.380;2023-04-07T02:11:39;94112.50;;;1.36;55.70
39301;BME280;25019;42.626;23.380;2023-04-07T02:14:06;94092.72;;;1.27;55.48
39301;BME280;25019;42.626;23.380;2023-04-07T02:16:46;94016.56;;;0.81;55.31
39301;BME280;25019;42.626;23.380;2023-04-07T02:19:12;94100.84;;;1.45;55.31
39301;BME280;25019;42.626;23.380;2023-04-07T02:21:38;94119.78;;;1.54;54.62
39301;BME280;25019;42.626;23.380;2023-04-07T02:24:05;94115.75;;;1.58;54.84
39301;BME280;25019;42.626;23.380;2023-04-07T02:26:33;94110.13;;;1.61;55.01
39301;BME280;25019;42.626;23.380;2023-04-07T02:28:59;94108.69;;;1.59;55.09
39301;BME280;25019;42.626;23.380;2023-04-07T02:31:25;94108.31;;;1.62;54.18
39301;BME280;25019;42.626;23.380;2023-04-07T02:33:52;94031.16;;;1.17;56.09
39301;BME280;25019;42.626;23.380;2023-04-07T02:36:17;94122.00;;;1.71;56.27
39301;BME280;25019;42.626;23.380;2023-04-07T02:38:43;94052.50;;;1.34;55.63
39301;BME280;25019;42.626;23.380;2023-04-07T02:41:08;94108.72;;;1.79;54.46
39301;BME280;25019;42.626;23.380;2023-04-07T02:43:34;94111.75;;;1.83;54.10
39301;BME280;25019;42.626;23.380;2023-04-07T02:46:00;94112.16;;;1.79;54.41
39301;BME280;25019;42.626;23.380;2023-04-07T02:48:26;94104.50;;;1.78;53.88
39301;BME280;25019;42.626;23.380;2023-04-07T02:50:51;94099.88;;;1.80;54.02
39301;BME280;25019;42.626;23.380;2023-04-07T02:53:17;94106.72;;;1.88;54.36
39301;BME280;25019;42.626;23.380;2023-04-07T02:55:43;94111.56;;;1.91;54.10
39301;BME280;25019;42.626;23.380;2023-04-07T02:58:08;94115.38;;;1.95;53.71
39301;BME280;25019;42.626;23.380;2023-04-07T03:00:41;94121.84;;;1.99;54.08
39301;BME280;25019;42.626;23.380;2023-04-07T03:03:13;94122.63;;;2.00;53.69
39301;BME280;25019;42.626;23.380;2023-04-07T03:05:44;94000.97;;;1.22;53.42
39301;BME280;25019;42.626;23.380;2023-04-07T03:08:10;94012.66;;;1.32;54.22
39301;BME280;25019;42.626;23.380;2023-04-07T03:10:37;94125.44;;;1.85;59.62
39301;BME280;25019;42.626;23.380;2023-04-07T03:13:03;94084.03;;;1.06;66.18
39301;BME280;25019;42.626;23.380;2023-04-07T03:15:31;94133.81;;;1.33;68.86
39301;BME280;25019;42.626;23.380;2023-04-07T03:17:57;94120.72;;;1.19;70.56
39301;BME280;25019;42.626;23.380;2023-04-07T03:20:22;94132.03;;;1.33;70.98
39301;BME280;25019;42.626;23.380;2023-04-07T03:22:48;94140.81;;;1.26;72.01
39301;BME280;25019;42.626;23.380;2023-04-07T03:25:20;94138.63;;;1.23;71.70
39301;BME280;25019;42.626;23.380;2023-04-07T03:27:47;94120.22;;;0.96;73.14
39301;BME280;25019;42.626;23.380;2023-04-07T03:30:14;94124.22;;;0.92;73.90
39301;BME280;25019;42.626;23.380;2023-04-07T03:32:39;94110.94;;;0.86;74.55
39301;BME280;25019;42.626;23.380;2023-04-07T03:35:05;94124.88;;;1.07;64.44
39301;BME280;25019;42.626;23.380;2023-04-07T03:37:31;94105.97;;;1.12;61.62
39301;BME280;25019;42.626;23.380;2023-04-07T03:39:57;94118.50;;;1.30;60.08
39301;BME280;25019;42.626;23.380;2023-04-07T03:42:25;94062.47;;;0.97;59.10
39301;BME280;25019;42.626;23.380;2023-04-07T03:44:56;94082.03;;;1.15;58.43
39301;BME280;25019;42.626;23.380;2023-04-07T03:47:22;94094.75;;;1.25;58.27
39301;BME280;25019;42.626;23.380;2023-04-07T03:49:53;94110.66;;;1.30;57.79
39301;BME280;25019;42.626;23.380;2023-04-07T03:52:21;94077.41;;;1.10;58.22
39301;BME280;25019;42.626;23.380;2023-04-07T03:54:50;94117.09;;;1.34;58.01
39301;BME280;25019;42.626;23.380;2023-04-07T03:57:18;94121.97;;;1.44;57.95
39301;BME280;25019;42.626;23.380;2023-04-07T03:59:46;94131.63;;;1.43;57.80
39301;BME280;25019;42.626;23.380;2023-04-07T04:02:17;94132.66;;;1.49;57.18
39301;BME280;25019;42.626;23.380;2023-04-07T04:04:44;94024.63;;;0.86;57.59
39301;BME280;25019;42.626;23.380;2023-04-07T04:07:10;94128.84;;;1.58;57.66
39301;BME280;25019;42.626;23.380;2023-04-07T04:09:41;94137.53;;;1.66;57.78
39301;BME280;25019;42.626;23.380;2023-04-07T04:12:06;94128.47;;;1.68;57.80
39301;BME280;25019;42.626;23.380;2023-04-07T04:14:37;94130.84;;;1.70;57.76
39301;BME280;25019;42.626;23.380;2023-04-07T04:17:05;94137.31;;;1.74;57.79
39301;BME280;25019;42.626;23.380;2023-04-07T04:19:35;94135.09;;;1.71;58.92
39301;BME280;25019;42.626;23.380;2023-04-07T04:22:08;94140.66;;;1.34;60.23
39301;BME280;25019;42.626;23.380;2023-04-07T04:24:41;94141.63;;;1.19;60.64
39301;BME280;25019;42.626;23.380;2023-04-07T04:27:07;94145.66;;;1.29;60.47
39301;BME280;25019;42.626;23.380;2023-04-07T04:29:32;94141.03;;;1.17;61.50
39301;BME280;25019;42.626;23.380;2023-04-07T04:32:00;94154.94;;;1.25;61.28
39301;BME280;25019;42.626;23.380;2023-04-07T04:34:26;94123.22;;;0.93;61.27
39301;BME280;25019;42.626;23.380;2023-04-07T04:36:53;94094.16;;;0.74;61.74
39301;BME280;25019;42.626;23.380;2023-04-07T04:39:19;94037.59;;;0.11;63.53
39301;BME280;25019;42.626;23.380;2023-04-07T04:41:46;94052.03;;;0.07;63.94
39301;BME280;25019;42.626;23.380;2023-04-07T04:44:12;94110.59;;;0.61;63.98
39301;BME280;25019;42.626;23.380;2023-04-07T04:46:40;94091.88;;;0.57;63.37
39301;BME280;25019;42.626;23.380;2023-04-07T04:49:06;94158.88;;;1.07;63.23
39301;BME280;25019;42.626;23.380;2023-04-07T04:51:33;94172.03;;;1.27;62.50
39301;BME280;25019;42.626;23.380;2023-04-07T04:54:04;94165.41;;;1.25;62.43
39301;BME280;25019;42.626;23.380;2023-04-07T04:56:32;94114.94;;;0.89;62.13
39301;BME280;25019;42.626;23.380;2023-04-07T04:58:58;94150.84;;;1.09;62.07
39301;BME280;25019;42.626;23.380;2023-04-07T05:01:32;94165.50;;;1.03;63.46
39301;BME280;25019;42.626;23.380;2023-04-07T05:04:04;94173.91;;;0.92;64.39
39301;BME280;25019;42.626;23.380;2023-04-07T05:06:30;94183.09;;;0.81;65.03
39301;BME280;25019;42.626;23.380;2023-04-07T05:09:01;94179.03;;;0.71;66.60
39301;BME280;25019;42.626;23.380;2023-04-07T05:11:32;94113.91;;;0.41;67.63
39301;BME280;25019;42.626;23.380;2023-04-07T05:13:58;94113.19;;;0.54;69.25
39301;BME280;25019;42.626;23.380;2023-04-07T05:16:25;94147.16;;;0.89;70.79
39301;BME280;25019;42.626;23.380;2023-04-07T05:18:51;94188.47;;;1.08;72.65
39301;BME280;25019;42.626;23.380;2023-04-07T05:21:17;94117.38;;;0.91;76.86
39301;BME280;25019;42.626;23.380;2023-04-07T05:23:47;94168.94;;;1.79;75.66
39301;BME280;25019;42.626;23.380;2023-04-07T05:26:12;94188.91;;;1.87;71.64
39301;BME280;25019;42.626;23.380;2023-04-07T05:28:39;94144.72;;;1.37;71.23
39301;BME280;25019;42.626;23.380;2023-04-07T05:31:11;94199.31;;;1.60;70.07
39301;BME280;25019;42.626;23.380;2023-04-07T05:33:37;94204.03;;;1.91;69.73
39301;BME280;25019;42.626;23.380;2023-04-07T05:36:03;94198.19;;;2.57;68.31
39301;BME280;25019;42.626;23.380;2023-04-07T05:38:30;94192.72;;;2.85;66.49
39301;BME280;25019;42.626;23.380;2023-04-07T05:40:59;94197.00;;;2.52;67.26
39301;BME280;25019;42.626;23.380;2023-04-07T05:43:30;94066.84;;;1.66;67.31
39301;BME280;25019;42.626;23.380;2023-04-07T05:45:56;94195.00;;;2.34;68.28
39301;BME280;25019;42.626;23.380;2023-04-07T05:48:23;94188.94;;;2.27;67.42
39301;BME280;25019;42.626;23.380;2023-04-07T05:50:52;94137.94;;;1.83;67.72
39301;BME280;25019;42.626;23.380;2023-04-07T05:53:18;94192.38;;;2.34;67.87
39301;BME280;25019;42.626;23.380;2023-04-07T05:55:45;94199.63;;;2.59;67.32
39301;BME280;25019;42.626;23.380;2023-04-07T05:58:22;94155.25;;;2.51;67.19
39301;BME280;25019;42.626;23.380;2023-04-07T06:00:51;94190.13;;;2.72;65.35
39301;BME280;25019;42.626;23.380;2023-04-07T06:03:17;94195.94;;;2.80;65.48
39301;BME280;25019;42.626;23.380;2023-04-07T06:05:57;94198.56;;;2.94;66.11
39301;BME280;25019;42.626;23.380;2023-04-07T06:08:23;94118.16;;;2.40;65.54
39301;BME280;25019;42.626;23.380;2023-04-07T06:10:49;94184.31;;;2.49;65.19
39301;BME280;25019;42.626;23.380;2023-04-07T06:13:14;94131.91;;;2.02;65.46
39301;BME280;25019;42.626;23.380;2023-04-07T06:15:41;94159.50;;;1.98;65.77
39301;BME280;25019;42.626;23.380;2023-04-07T06:18:08;94131.72;;;1.97;65.54
39301;BME280;25019;42.626;23.380;2023-04-07T06:20:34;94190.75;;;2.53;66.56
39301;BME280;25019;42.626;23.380;2023-04-07T06:23:01;94145.41;;;2.33;66.17
39301;BME280;25019;42.626;23.380;2023-04-07T06:25:26;94172.38;;;2.74;65.48
39301;BME280;25019;42.626;23.380;2023-04-07T06:27:53;94157.66;;;2.52;63.46
39301;BME280;25019;42.626;23.380;2023-04-07T06:30:19;94138.94;;;2.49;62.73
39301;BME280;25019;42.626;23.380;2023-04-07T06:32:45;94116.38;;;2.34;61.52
39301;BME280;25019;42.626;23.380;2023-04-07T06:35:11;94163.09;;;2.78;61.33
39301;BME280;25019;42.626;23.380;2023-04-07T06:37:36;94198.19;;;2.90;62.89
39301;BME280;25019;42.626;23.380;2023-04-07T06:40:05;94094.97;;;2.37;62.74
39301;BME280;25019;42.626;23.380;2023-04-07T06:42:31;94193.94;;;2.89;62.42
39301;BME280;25019;42.626;23.380;2023-04-07T06:45:05;94194.72;;;2.96;62.14
39301;BME280;25019;42.626;23.380;2023-04-07T06:47:31;94111.13;;;2.41;61.78
39301;BME280;25019;42.626;23.380;2023-04-07T06:49:57;94192.69;;;3.05;62.23
39301;BME280;25019;42.626;23.380;2023-04-07T06:52:23;94195.72;;;3.02;61.91
39301;BME280;25019;42.626;23.380;2023-04-07T06:54:48;94194.72;;;2.96;61.92
39301;BME280;25019;42.626;23.380;2023-04-07T06:57:14;94186.16;;;3.21;61.35
39301;BME280;25019;42.626;23.380;2023-04-07T06:59:40;94195.84;;;3.27;61.27
39301;BME280;25019;42.626;23.380;2023-04-07T07:02:06;94175.88;;;3.20;61.57
39301;BME280;25019;42.626;23.380;2023-04-07T07:04:33;94136.09;;;3.23;61.99
39301;BME280;25019;42.626;23.380;2023-04-07T07:06:59;94140.44;;;2.97;59.99
39301;BME280;25019;42.626;23.380;2023-04-07T07:09:25;94145.50;;;3.37;60.16
39301;BME280;25019;42.626;23.380;2023-04-07T07:11:51;94196.28;;;4.02;60.14
39301;BME280;25019;42.626;23.380;2023-04-07T07:14:17;94187.81;;;4.32;58.74
39301;BME280;25019;42.626;23.380;2023-04-07T07:16:43;94188.38;;;4.34;57.30
39301;BME280;25019;42.626;23.380;2023-04-07T07:19:09;94178.78;;;4.46;57.33
39301;BME280;25019;42.626;23.380;2023-04-07T07:21:35;94194.66;;;4.58;56.87
39301;BME280;25019;42.626;23.380;2023-04-07T07:24:00;94200.16;;;4.75;56.12
39301;BME280;25019;42.626;23.380;2023-04-07T07:26:26;94203.88;;;4.68;57.03
39301;BME280;25019;42.626;23.380;2023-04-07T07:28:52;94195.34;;;4.72;57.25
39301;BME280;25019;42.626;23.380;2023-04-07T07:31:17;94137.16;;;4.18;57.50
39301;BME280;25019;42.626;23.380;2023-04-07T07:33:43;94202.38;;;4.78;55.71
39301;BME280;25019;42.626;23.380;2023-04-07T07:36:10;94209.41;;;4.85;54.48
39301;BME280;25019;42.626;23.380;2023-04-07T07:38:37;94201.16;;;5.00;49.80
39301;BME280;25019;42.626;23.380;2023-04-07T07:41:03;94070.97;;;4.21;49.71
39301;BME280;25019;42.626;23.380;2023-04-07T07:43:30;94205.63;;;5.36;48.34
39301;BME280;25019;42.626;23.380;2023-04-07T07:45:56;94209.63;;;5.76;47.27
39301;BME280;25019;42.626;23.380;2023-04-07T07:48:21;94200.16;;;5.87;46.90
39301;BME280;25019;42.626;23.380;2023-04-07T07:50:47;94147.56;;;5.62;46.16
39301;BME280;25019;42.626;23.380;2023-04-07T07:53:13;94204.38;;;6.49;46.54
39301;BME280;25019;42.626;23.380;2023-04-07T07:55:39;94198.53;;;6.95;45.02
39301;BME280;25019;42.626;23.380;2023-04-07T07:58:05;94192.00;;;7.09;44.49
39301;BME280;25019;42.626;23.380;2023-04-07T08:00:30;94200.66;;;7.33;43.51
39301;BME280;25019;42.626;23.380;2023-04-07T08:02:56;94201.50;;;7.34;42.32
39301;BME280;25019;42.626;23.380;2023-04-07T08:05:22;94198.50;;;7.30;43.03
39301;BME280;25019;42.626;23.380;2023-04-07T08:07:47;94183.22;;;7.32;42.45
39301;BME280;25019;42.626;23.380;2023-04-07T08:10:14;94205.59;;;7.42;42.23
39301;BME280;25019;42.626;23.380;2023-04-07T08:12:42;94154.63;;;7.17;41.77
39301;BME280;25019;42.626;23.380;2023-04-07T08:15:08;94203.38;;;7.62;41.86
39301;BME280;25019;42.626;23.380;2023-04-07T08:17:35;94208.66;;;7.62;41.43
39301;BME280;25019;42.626;23.380;2023-04-07T08:20:01;94191.00;;;7.39;41.33
39301;BME280;25019;42.626;23.380;2023-04-07T08:22:28;94187.44;;;7.45;41.69
39301;BME280;25019;42.626;23.380;2023-04-07T08:24:53;94206.19;;;7.44;40.93
39301;BME280;25019;42.626;23.380;2023-04-07T08:27:19;94201.66;;;7.56;40.71
39301;BME280;25019;42.626;23.380;2023-04-07T08:29:57;94202.91;;;7.65;40.95
39301;BME280;25019;42.626;23.380;2023-04-07T08:32:24;94194.34;;;7.75;40.75
39301;BME280;25019;42.626;23.380;2023-04-07T08:34:50;94178.03;;;7.78;39.62
39301;BME280;25019;42.626;23.380;2023-04-07T08:37:15;94195.41;;;8.03;40.23
39301;BME280;25019;42.626;23.380;2023-04-07T08:39:41;94129.59;;;7.32;40.16
39301;BME280;25019;42.626;23.380;2023-04-07T08:42:08;94201.31;;;7.93;40.21
39301;BME280;25019;42.626;23.380;2023-04-07T08:44:35;94197.94;;;8.27;39.81
39301;BME280;25019;42.626;23.380;2023-04-07T08:47:04;94185.34;;;8.34;40.00
39301;BME280;25019;42.626;23.380;2023-04-07T08:49:34;94185.63;;;8.04;40.23
39301;BME280;25019;42.626;23.380;2023-04-07T08:52:05;94207.13;;;8.07;40.57
39301;BME280;25019;42.626;23.380;2023-04-07T08:54:31;94197.75;;;7.59;40.92
39301;BME280;25019;42.626;23.380;2023-04-07T08:56:58;94203.72;;;7.95;40.52
39301;BME280;25019;42.626;23.380;2023-04-07T08:59:25;94189.84;;;7.88;40.01
39301;BME280;25019;42.626;23.380;2023-04-07T09:01:53;94208.00;;;7.84;40.63
39301;BME280;25019;42.626;23.380;2023-04-07T09:04:19;94213.13;;;8.03;40.38
39301;BME280;25019;42.626;23.380;2023-04-07T09:06:48;94206.34;;;8.24;40.27
39301;BME280;25019;42.626;23.380;2023-04-07T09:09:13;94205.31;;;8.42;40.19
39301;BME280;25019;42.626;23.380;2023-04-07T09:11:39;94195.25;;;8.10;40.07
39301;BME280;25019;42.626;23.380;2023-04-07T09:14:05;94199.03;;;8.14;40.43
39301;BME280;25019;42.626;23.380;2023-04-07T09:16:32;94202.84;;;8.35;40.29
39301;BME280;25019;42.626;23.380;2023-04-07T09:18:58;94207.19;;;8.42;40.33
39301;BME280;25019;42.626;23.380;2023-04-07T09:21:24;94159.06;;;8.45;39.50
39301;BME280;25019;42.626;23.380;2023-04-07T09:23:50;94198.47;;;8.92;39.77
39301;BME280;25019;42.626;23.380;2023-04-07T09:26:19;94196.44;;;9.17;37.22
39301;BME280;25019;42.626;23.380;2023-04-07T09:28:48;94201.84;;;9.05;37.72
39301;BME280;25019;42.626;23.380;2023-04-07T09:31:17;94185.38;;;9.03;37.56
39301;BME280;25019;42.626;23.380;2023-04-07T09:33:43;94204.59;;;9.15;38.08
39301;BME280;25019;42.626;23.380;2023-04-07T09:36:09;94205.56;;;9.09;38.12
39301;BME280;25019;42.626;23.380;2023-04-07T09:38:36;94204.13;;;9.57;37.55
39301;BME280;25019;42.626;23.380;2023-04-07T09:41:15;94197.19;;;9.34;37.24
39301;BME280;25019;42.626;23.380;2023-04-07T09:43:45;94200.19;;;9.21;37.25
39301;BME280;25019;42.626;23.380;2023-04-07T09:46:12;94196.78;;;8.69;38.62
39301;BME280;25019;42.626;23.380;2023-04-07T09:48:38;94154.38;;;8.01;39.34
39301;BME280;25019;42.626;23.380;2023-04-07T09:51:14;94212.13;;;8.38;39.27
39301;BME280;25019;42.626;23.380;2023-04-07T09:53:41;94201.34;;;8.10;39.70
39301;BME280;25019;42.626;23.380;2023-04-07T09:56:09;94210.13;;;7.99;40.33
39301;BME280;25019;42.626;23.380;2023-04-07T09:58:37;94220.59;;;8.06;40.48
39301;BME280;25019;42.626;23.380;2023-04-07T10:01:05;94212.56;;;8.01;40.79
39301;BME280;25019;42.626;23.380;2023-04-07T10:03:33;94213.75;;;7.93;41.50
39301;BME280;25019;42.626;23.380;2023-04-07T10:06:01;94202.78;;;7.60;41.78
39301;BME280;25019;42.626;23.380;2023-04-07T10:08:30;94162.75;;;7.40;41.96
39301;BME280;25019;42.626;23.380;2023-04-07T10:10:56;94216.50;;;8.15;40.64
39301;BME280;25019;42.626;23.380;2023-04-07T10:13:23;94223.34;;;8.28;40.49
39301;BME280;25019;42.626;23.380;2023-04-07T10:15:50;94219.00;;;8.51;40.22
39301;BME280;25019;42.626;23.380;2023-04-07T10:18:16;94163.28;;;8.12;40.31
39301;BME280;25019;42.626;23.380;2023-04-07T10:20:45;94187.56;;;8.54;39.42
39301;BME280;25019;42.626;23.380;2023-04-07T10:24:02;94212.56;;;9.15;38.82
39301;BME280;25019;42.626;23.380;2023-04-07T10:26:07;94198.13;;;9.45;38.64
39301;BME280;25019;42.626;23.380;2023-04-07T10:28:37;94191.94;;;9.00;39.34
39301;BME280;25019;42.626;23.380;2023-04-07T10:31:04;94204.72;;;9.03;39.14
39301;BME280;25019;42.626;23.380;2023-04-07T10:33:50;94144.09;;;8.67;39.52
39301;BME280;25019;42.626;23.380;2023-04-07T10:36:17;94136.78;;;8.75;39.60
39301;BME280;25019;42.626;23.380;2023-04-07T10:41:40;94214.16;;;9.16;39.45
39301;BME280;25019;42.626;23.380;2023-04-07T10:44:43;94213.56;;;9.31;39.67
39301;BME280;25019;42.626;23.380;2023-04-07T10:49:21;94218.91;;;8.97;39.27
39301;BME280;25019;42.626;23.380;2023-04-07T10:52:22;94224.00;;;8.98;39.80
39301;BME280;25019;42.626;23.380;2023-04-07T10:55:27;94223.81;;;8.88;39.33
39301;BME280;25019;42.626;23.380;2023-04-07T10:58:28;94211.97;;;8.57;39.78
39301;BME280;25019;42.626;23.380;2023-04-07T11:03:26;94222.09;;;8.31;40.45
39301;BME280;25019;42.626;23.380;2023-04-07T11:05:52;94231.91;;;8.18;40.61
39301;BME280;25019;42.626;23.380;2023-04-07T11:08:37;94230.66;;;7.92;40.37
39301;BME280;25019;42.626;23.380;2023-04-07T11:11:04;94239.41;;;7.80;42.50
39301;BME280;25019;42.626;23.380;2023-04-07T11:16:08;94233.38;;;7.97;42.56
39301;BME280;25019;42.626;23.380;2023-04-07T11:18:35;94231.03;;;8.13;42.71
39301;BME280;25019;42.626;23.380;2023-04-07T11:21:02;94224.94;;;8.29;43.26
39301;BME280;25019;42.626;23.380;2023-04-07T11:23:28;94223.13;;;8.30;43.23
39301;BME280;25019;42.626;23.380;2023-04-07T11:26:01;94226.25;;;8.27;43.61
39301;BME280;25019;42.626;23.380;2023-04-07T11:28:28;94183.81;;;7.63;44.24
39301;BME280;25019;42.626;23.380;2023-04-07T11:30:55;94160.19;;;7.57;44.08
39301;BME280;25019;42.626;23.380;2023-04-07T11:33:25;94225.91;;;7.65;44.45
39301;BME280;25019;42.626;23.380;2023-04-07T11:35:58;94225.81;;;7.89;44.38
39301;BME280;25019;42.626;23.380;2023-04-07T11:38:26;94234.94;;;8.10;44.33
39301;BME280;25019;42.626;23.380;2023-04-07T11:40:53;94217.78;;;7.84;43.80
39301;BME280;25019;42.626;23.380;2023-04-07T11:43:25;94233.84;;;7.94;44.38
39301;BME280;25019;42.626;23.380;2023-04-07T11:46:15;94232.78;;;7.95;43.77
39301;BME280;25019;42.626;23.380;2023-04-07T11:48:42;94234.84;;;8.05;44.16
39301;BME280;25019;42.626;23.380;2023-04-07T11:51:19;94227.44;;;8.19;44.17
39301;BME280;25019;42.626;23.380;2023-04-07T11:53:45;94225.22;;;8.45;43.78
39301;BME280;25019;42.626;23.380;2023-04-07T11:56:14;94226.34;;;8.78;43.50
39301;BME280;25019;42.626;23.380;2023-04-07T11:58:47;94223.91;;;8.93;42.60
39301;BME280;25019;42.626;23.380;2023-04-07T12:01:13;94231.78;;;8.88;42.95
39301;BME280;25019;42.626;23.380;2023-04-07T12:04:00;94228.38;;;8.93;43.48
39301;BME280;25019;42.626;23.380;2023-04-07T12:06:31;94234.97;;;8.90;43.55
39301;BME280;25019;42.626;23.380;2023-04-07T12:09:02;94230.72;;;8.72;43.06
39301;BME280;25019;42.626;23.380;2023-04-07T12:11:28;94145.09;;;8.15;44.02
39301;BME280;25019;42.626;23.380;2023-04-07T12:13:54;94232.66;;;8.77;44.03
39301;BME280;25019;42.626;23.380;2023-04-07T12:16:21;94179.06;;;8.52;43.47
39301;BME280;25019;42.626;23.380;2023-04-07T12:18:47;94233.84;;;8.69;44.37
39301;BME280;25019;42.626;23.380;2023-04-07T12:21:13;94227.13;;;8.78;44.43
39301;BME280;25019;42.626;23.380;2023-04-07T12:23:39;94239.16;;;8.69;44.63
39301;BME280;25019;42.626;23.380;2023-04-07T12:26:06;94235.84;;;8.79;44.56
39301;BME280;25019;42.626;23.380;2023-04-07T12:28:32;94193.66;;;8.55;44.29
39301;BME280;25019;42.626;23.380;2023-04-07T12:30:58;94244.22;;;8.88;44.03
39301;BME280;25019;42.626;23.380;2023-04-07T12:33:24;94238.66;;;8.72;44.38
39301;BME280;25019;42.626;23.380;2023-04-07T12:35:50;94173.25;;;8.38;44.47
39301;BME280;25019;42.626;23.380;2023-04-07T12:38:16;94183.28;;;8.36;44.38
39301;BME280;25019;42.626;23.380;2023-04-07T12:40:42;94163.50;;;8.56;44.86
39301;BME280;25019;42.626;23.380;2023-04-07T12:43:08;94237.31;;;8.87;44.28
39301;BME280;25019;42.626;23.380;2023-04-07T12:45:34;94243.97;;;8.89;44.52
39301;BME280;25019;42.626;23.380;2023-04-07T12:48:00;94217.19;;;8.86;44.32
39301;BME280;25019;42.626;23.380;2023-04-07T12:50:25;94208.66;;;8.83;44.33
39301;BME280;25019;42.626;23.380;2023-04-07T12:52:51;94228.81;;;9.02;44.21
39301;BME280;25019;42.626;23.380;2023-04-07T12:55:18;94239.16;;;9.03;44.20
39301;BME280;25019;42.626;23.380;2023-04-07T12:57:44;94240.38;;;8.95;44.65
39301;BME280;25019;42.626;23.380;2023-04-07T13:00:12;94223.25;;;8.86;44.51
39301;BME280;25019;42.626;23.380;2023-04-07T13:02:38;94182.06;;;8.27;45.18
39301;BME280;25019;42.626;23.380;2023-04-07T13:05:07;94236.34;;;8.76;45.11
39301;BME280;25019;42.626;23.380;2023-04-07T13:07:35;94215.19;;;8.76;45.29
39301;BME280;25019;42.626;23.380;2023-04-07T13:10:01;94231.28;;;8.74;44.90
39301;BME280;25019;42.626;23.380;2023-04-07T13:12:27;94253.75;;;8.72;44.81
39301;BME280;25019;42.626;23.380;2023-04-07T13:14:53;94252.03;;;8.48;45.06
39301;BME280;25019;42.626;23.380;2023-04-07T13:17:18;94209.75;;;8.07;45.68
39301;BME280;25019;42.626;23.380;2023-04-07T13:19:44;94248.50;;;8.14;45.76
39301;BME280;25019;42.626;23.380;2023-04-07T13:22:12;94243.69;;;8.10;45.63
39301;BME280;25019;42.626;23.380;2023-04-07T13:24:38;94246.00;;;8.36;45.79